createdAt,value
2023-01-09T00:01:21.829Z,70.61
2023-01-09T00:03:49.157Z,70.35
2023-01-09T00:06:17.169Z,70.02
2023-01-09T00:08:44.529Z,69.47
2023-01-09T00:11:11.545Z,69.17
2023-01-09T00:13:39.312Z,69.40
2023-01-09T00:16:08.247Z,69.00
2023-01-09T00:18:37.036Z,68.92
2023-01-09T00:21:08.382Z,68.83
2023-01-09T00:23:36.484Z,68.44
2023-01-09T00:26:11.553Z,68.21
2023-01-09T00:28:39.213Z,68.25
2023-01-09T00:31:08.962Z,67.80
2023-01-09T00:33:42.708Z,67.83
2023-01-09T00:36:11.030Z,68.27
2023-01-09T00:38:39.180Z,68.41
2023-01-09T00:41:11.383Z,67.96
2023-01-09T00:43:51.741Z,68.42
2023-01-09T00:46:24.426Z,68.78
2023-01-09T00:48:52.091Z,68.92
2023-01-09T00:51:20.275Z,68.72
2023-01-09T00:53:50.527Z,68.82
2023-01-09T00:56:20.879Z,68.55
2023-01-09T00:58:48.764Z,68.58
2023-01-09T01:01:15.829Z,68.20
2023-01-09T01:03:43.050Z,68.37
2023-01-09T01:06:28.833Z,68.39
2023-01-09T01:08:56.453Z,68.09
2023-01-09T01:11:24.199Z,68.52
2023-01-09T01:13:51.991Z,67.56
2023-01-09T01:16:19.058Z,68.48
2023-01-09T01:18:46.364Z,68.49
2023-01-09T01:21:15.496Z,68.15
2023-01-09T01:23:43.705Z,67.98
2023-01-09T01:26:15.878Z,68.26
2023-01-09T01:28:43.427Z,68.70
2023-01-09T01:31:17.591Z,68.24
2023-01-09T01:33:44.813Z,68.33
2023-01-09T01:36:11.867Z,67.72
2023-01-09T01:38:39.033Z,68.80
2023-01-09T01:41:07.089Z,68.29
2023-01-09T01:43:54.307Z,68.84
2023-01-09T01:46:22.230Z,68.88
2023-01-09T01:48:59.718Z,69.60
2023-01-09T01:51:32.466Z,69.21
2023-01-09T01:54:07.994Z,69.13
2023-01-09T01:56:57.055Z,69.49
2023-01-09T01:59:43.162Z,69.11
2023-01-09T02:02:11.310Z,69.72
2023-01-09T02:04:40.426Z,69.56
2023-01-09T02:07:10.254Z,69.56
2023-01-09T02:09:40.392Z,69.25
2023-01-09T02:12:26.994Z,69.32
2023-01-09T02:15:03.327Z,69.14
2023-01-09T02:17:53.101Z,69.55
2023-01-09T02:20:36.352Z,70.25
2023-01-09T02:23:38.710Z,69.48
2023-01-09T02:26:33.225Z,69.69
2023-01-09T02:29:33.823Z,68.81
2023-01-09T02:32:19.050Z,69.54
2023-01-09T02:35:07.767Z,69.61
2023-01-09T02:38:03.475Z,70.11
2023-01-09T02:40:41.450Z,70.05
2023-01-09T02:43:10.669Z,70.18
2023-01-09T02:45:37.657Z,70.19
2023-01-09T02:48:05.316Z,69.67
2023-01-09T02:51:11.167Z,69.64
2023-01-09T02:54:05.764Z,69.79
2023-01-09T02:56:55.998Z,69.35
2023-01-09T02:59:56.494Z,69.70
2023-01-09T03:02:49.310Z,70.16
2023-01-09T03:05:42.553Z,70.07
2023-01-09T03:08:20.732Z,69.81
2023-01-09T03:11:06.698Z,70.00
2023-01-09T03:13:45.248Z,70.37
2023-01-09T03:16:23.917Z,70.81
2023-01-09T03:18:53.606Z,70.19
2023-01-09T03:21:23.428Z,70.96
2023-01-09T03:23:59.814Z,70.64
2023-01-09T03:26:31.592Z,70.60
2023-01-09T03:28:59.875Z,71.03
2023-01-09T03:31:27.483Z,70.43
2023-01-09T03:33:54.722Z,70.37
2023-01-09T03:36:23.934Z,71.38
2023-01-09T03:38:51.618Z,70.89
2023-01-09T03:41:20.125Z,70.83
2023-01-09T03:43:48.560Z,70.78
2023-01-09T03:46:17.194Z,70.82
2023-01-09T03:48:44.306Z,70.77
2023-01-09T03:51:11.636Z,70.83
2023-01-09T03:53:38.964Z,70.66
2023-01-09T03:56:06.556Z,71.03
2023-01-09T03:58:33.563Z,71.50
2023-01-09T04:01:05.466Z,72.05
2023-01-09T04:03:32.506Z,71.90
2023-01-09T04:06:00.129Z,72.77
2023-01-09T04:08:27.050Z,72.62
2023-01-09T04:10:54.257Z,72.81
2023-01-09T04:13:21.130Z,73.02
2023-01-09T04:15:48.353Z,72.91
2023-01-09T04:18:16.123Z,73.15
2023-01-09T04:20:46.481Z,72.71
2023-01-09T04:23:13.363Z,73.82
2023-01-09T04:25:40.474Z,73.03
2023-01-09T04:28:07.521Z,73.98
2023-01-09T04:30:34.748Z,74.25
2023-01-09T04:33:01.661Z,74.26
2023-01-09T04:35:28.844Z,74.05
2023-01-09T04:37:55.826Z,73.88
2023-01-09T04:40:23.061Z,73.66
2023-01-09T04:42:49.983Z,74.10
2023-01-09T04:45:17.351Z,74.35
2023-01-09T04:47:44.876Z,75.60
2023-01-09T04:50:13.309Z,75.87
2023-01-09T04:52:40.699Z,76.03
2023-01-09T04:55:09.111Z,76.45
2023-01-09T04:57:37.127Z,76.06
2023-01-09T05:00:09.754Z,76.07
2023-01-09T05:02:37.437Z,76.67
2023-01-09T05:05:10.440Z,76.79
2023-01-09T05:07:38.682Z,76.08
2023-01-09T05:10:07.441Z,76.57
2023-01-09T05:12:37.070Z,76.38
2023-01-09T05:15:06.709Z,76.12
2023-01-09T05:17:33.701Z,75.92
2023-01-09T05:20:03.481Z,76.10
2023-01-09T05:22:30.442Z,76.20
2023-01-09T05:24:59.661Z,76.48
2023-01-09T05:27:27.469Z,76.26
2023-01-09T05:29:54.596Z,76.11
2023-01-09T05:32:21.534Z,75.56
2023-01-09T05:34:48.723Z,76.04
2023-01-09T05:37:15.708Z,76.57
2023-01-09T05:39:43.549Z,76.43
2023-01-09T05:42:11.009Z,76.38
2023-01-09T05:44:38.183Z,75.80
2023-01-09T05:47:05.171Z,75.46
2023-01-09T05:49:32.172Z,75.02
2023-01-09T05:51:59.333Z,75.14
2023-01-09T05:54:26.241Z,75.01
2023-01-09T05:56:53.548Z,75.71
2023-01-09T05:59:20.594Z,75.94
2023-01-09T06:01:47.853Z,75.70
2023-01-09T06:04:46.840Z,75.73
2023-01-09T06:13:17.404Z,75.25
2023-01-09T06:15:44.810Z,75.60
2023-01-09T06:18:12.388Z,75.36
2023-01-09T06:20:39.601Z,75.78
2023-01-09T06:23:06.591Z,74.97
2023-01-09T06:25:34.222Z,75.50
2023-01-09T06:28:01.237Z,75.12
2023-01-09T06:30:28.478Z,75.19
2023-01-09T06:32:55.452Z,75.24
2023-01-09T06:35:23.137Z,74.79
2023-01-09T06:37:50.894Z,75.12
2023-01-09T06:40:21.081Z,73.86
2023-01-09T06:42:50.466Z,74.53
2023-01-09T06:45:18.447Z,74.27
2023-01-09T06:47:46.485Z,74.24
2023-01-09T06:50:13.753Z,73.95
2023-01-09T06:52:40.788Z,74.55
2023-01-09T06:55:09.094Z,74.20
2023-01-09T06:57:36.261Z,74.68
2023-01-09T07:00:04.929Z,74.53
2023-01-09T07:02:32.034Z,74.84
2023-01-09T07:05:00.056Z,74.90
2023-01-09T07:07:27.083Z,74.84
2023-01-09T07:09:54.296Z,74.41
2023-01-09T07:12:21.189Z,74.49
2023-01-09T07:14:48.500Z,74.59
2023-01-09T07:17:15.717Z,74.95
2023-01-09T07:19:43.373Z,74.81
2023-01-09T07:22:11.173Z,74.80
2023-01-09T07:24:38.390Z,74.78
2023-01-09T07:27:05.613Z,74.84
2023-01-09T07:29:32.794Z,75.09
2023-01-09T07:31:59.728Z,75.05
2023-01-09T07:34:26.900Z,75.02
2023-01-09T07:36:53.942Z,75.20
2023-01-09T07:39:21.713Z,74.99
2023-01-09T07:41:48.647Z,75.25
2023-01-09T07:44:16.477Z,74.91
2023-01-09T07:46:43.422Z,74.83
2023-01-09T07:49:10.583Z,74.80
2023-01-09T07:51:42.790Z,74.68
2023-01-09T07:54:12.591Z,74.62
2023-01-09T07:56:40.612Z,74.88
2023-01-09T07:59:08.061Z,74.71
2023-01-09T08:01:35.341Z,74.84
2023-01-09T08:04:02.632Z,74.42
2023-01-09T08:06:30.176Z,74.27
2023-01-09T08:08:58.456Z,74.50
2023-01-09T08:11:26.155Z,74.43
2023-01-09T08:13:53.312Z,74.68
2023-01-09T08:16:20.867Z,74.58
2023-01-09T08:18:48.296Z,74.37
2023-01-09T08:21:16.302Z,74.29
2023-01-09T08:23:45.509Z,73.94
2023-01-09T08:26:13.268Z,74.02
2023-01-09T08:28:40.370Z,73.59
2023-01-09T08:31:07.413Z,73.91
2023-01-09T08:33:34.704Z,74.20
2023-01-09T08:36:01.867Z,73.70
2023-01-09T08:38:29.152Z,73.69
2023-01-09T08:40:56.204Z,73.84
2023-01-09T08:43:42.353Z,73.91
2023-01-09T08:46:40.144Z,73.50
2023-01-09T08:49:07.318Z,73.61
2023-01-09T08:51:34.254Z,72.94
2023-01-09T08:54:01.517Z,72.38
2023-01-09T08:56:28.408Z,72.78
2023-01-09T08:58:55.622Z,72.65
2023-01-09T09:01:22.537Z,72.58
2023-01-09T09:03:49.768Z,73.07
2023-01-09T09:06:16.745Z,72.77
2023-01-09T09:08:43.970Z,72.81
2023-01-09T09:11:11.664Z,72.94
2023-01-09T09:13:38.798Z,72.73
2023-01-09T09:16:06.293Z,72.81
2023-01-09T09:18:33.575Z,73.00
2023-01-09T09:21:00.475Z,73.19
2023-01-09T09:23:28.227Z,73.57
2023-01-09T09:25:55.219Z,73.76
2023-01-09T09:28:22.435Z,73.89
2023-01-09T09:30:49.336Z,73.50
2023-01-09T09:33:16.549Z,73.70
2023-01-09T09:35:43.430Z,73.59
2023-01-09T09:38:11.029Z,73.86
2023-01-09T09:41:01.948Z,73.95
2023-01-09T09:44:39.593Z,73.65
2023-01-09T09:47:43.471Z,74.02
2023-01-09T09:50:42.850Z,74.38
2023-01-09T09:53:21.741Z,74.15
2023-01-09T09:55:50.615Z,74.14
2023-01-09T09:59:05.838Z,74.35
2023-01-09T10:01:57.650Z,73.92
2023-01-09T10:04:29.480Z,74.17
2023-01-09T10:07:09.478Z,73.98
2023-01-09T10:09:50.520Z,73.80
2023-01-09T10:12:39.343Z,73.80
2023-01-09T10:15:28.708Z,73.89
2023-01-09T10:18:34.603Z,73.35
2023-01-09T10:21:35.649Z,73.51
2023-01-09T10:24:22.442Z,73.17
2023-01-09T10:26:54.075Z,73.29
2023-01-09T10:30:01.720Z,73.03
2023-01-09T10:32:37.267Z,72.70
2023-01-09T10:35:48.563Z,72.67
2023-01-09T10:38:26.497Z,72.49
2023-01-09T10:41:16.525Z,72.71
2023-01-09T10:44:18.357Z,71.83
2023-01-09T10:46:54.416Z,71.81
2023-01-09T10:49:24.243Z,72.09
2023-01-09T10:52:15.586Z,71.90
2023-01-09T10:55:15.099Z,72.18
2023-01-09T10:57:47.646Z,71.64
2023-01-09T11:00:23.548Z,71.60
2023-01-09T11:02:55.226Z,71.60
2023-01-09T11:05:28.417Z,71.69
2023-01-09T11:08:14.013Z,70.95
2023-01-09T11:10:53.492Z,71.31
2023-01-09T11:13:33.592Z,70.59
2023-01-09T11:16:21.082Z,70.77
2023-01-09T11:18:53.403Z,70.59
2023-01-09T11:21:36.173Z,70.69
2023-01-09T11:24:21.575Z,69.98
2023-01-09T11:26:54.676Z,69.97
2023-01-09T11:29:26.633Z,70.01
2023-01-09T11:32:02.063Z,69.93
2023-01-09T11:34:36.364Z,69.93
2023-01-09T11:37:11.103Z,69.79
2023-01-09T11:39:46.636Z,69.35
2023-01-09T11:42:44.749Z,68.80
2023-01-09T11:45:27.303Z,68.55
2023-01-09T11:47:54.429Z,68.87
2023-01-09T11:50:29.178Z,68.36
2023-01-09T11:53:27.026Z,68.31
2023-01-09T11:56:01.320Z,67.77
2023-01-09T11:58:35.183Z,67.21
2023-01-09T12:01:48.569Z,67.25
2023-01-09T12:04:28.964Z,67.04
2023-01-09T12:07:18.660Z,66.69
2023-01-09T12:10:40.929Z,66.30
2023-01-09T12:13:48.918Z,66.14
2023-01-09T12:16:37.906Z,66.08
2023-01-09T12:19:24.686Z,66.12
2023-01-09T12:22:40.919Z,66.45
2023-01-09T12:25:40.574Z,66.08
2023-01-09T12:28:49.513Z,66.40
2023-01-09T12:32:04.833Z,66.85
2023-01-09T12:34:38.744Z,66.84
2023-01-09T12:37:40.582Z,66.62
2023-01-09T12:40:16.538Z,67.15
2023-01-09T12:43:05.153Z,67.12
2023-01-09T12:45:59.839Z,66.76
2023-01-09T12:48:42.116Z,66.30
2023-01-09T12:51:33.223Z,66.33
2023-01-09T12:54:26.599Z,66.10
2023-01-09T12:57:04.249Z,66.15
2023-01-09T12:59:45.532Z,65.73
2023-01-09T13:02:42.230Z,65.38
2023-01-09T13:05:23.959Z,65.27
2023-01-09T13:08:20.113Z,63.67
2023-01-09T13:11:18.996Z,64.04
2023-01-09T13:14:13.493Z,62.89
2023-01-09T13:16:48.735Z,62.47
2023-01-09T13:19:25.183Z,62.50
2023-01-09T13:21:57.270Z,62.22
2023-01-09T13:24:49.536Z,61.33
2023-01-09T13:27:21.638Z,61.09
2023-01-09T13:29:55.943Z,61.00
2023-01-09T13:33:12.067Z,60.78
2023-01-09T13:35:55.741Z,60.38
2023-01-09T13:38:27.563Z,60.86
2023-01-09T13:41:30.612Z,60.70
2023-01-09T13:44:06.175Z,61.32
2023-01-09T13:46:44.467Z,61.80
2023-01-09T13:49:44.167Z,61.55
2023-01-09T13:52:29.140Z,62.06
2023-01-09T13:54:59.793Z,62.24
2023-01-09T13:57:35.149Z,63.07
2023-01-09T14:00:14.603Z,62.50
2023-01-09T14:02:42.087Z,63.09
2023-01-09T14:05:33.575Z,62.50
2023-01-09T14:08:23.857Z,62.56
2023-01-09T14:10:57.791Z,62.44
2023-01-09T14:13:43.511Z,62.31
2023-01-09T14:16:23.967Z,61.97
2023-01-09T14:18:52.521Z,62.46
2023-01-09T14:21:21.103Z,62.38
2023-01-09T14:24:03.447Z,62.41
2023-01-09T14:26:58.811Z,62.43
2023-01-09T14:29:29.366Z,62.30
2023-01-09T14:32:26.516Z,62.20
2023-01-09T14:35:17.972Z,62.58
2023-01-09T14:38:02.697Z,62.35
2023-01-09T14:40:32.936Z,62.36
2023-01-09T14:43:19.749Z,62.25
2023-01-09T14:45:50.179Z,62.49
2023-01-09T14:48:19.767Z,62.34
2023-01-09T14:50:55.652Z,62.62
2023-01-09T14:53:37.347Z,62.65
2023-01-09T14:56:07.364Z,62.75
2023-01-09T14:58:36.816Z,62.88
2023-01-09T15:01:24.001Z,62.60
2023-01-09T15:04:03.692Z,62.90
2023-01-09T15:06:51.838Z,62.99
2023-01-09T15:09:47.864Z,62.62
2023-01-09T15:12:27.084Z,62.27
2023-01-09T15:15:04.848Z,62.73
2023-01-09T15:17:36.663Z,62.97
2023-01-09T15:20:09.849Z,63.19
2023-01-09T15:22:38.027Z,62.99
2023-01-09T15:25:38.044Z,63.29
2023-01-09T15:28:32.623Z,63.46
2023-01-09T15:31:10.119Z,63.08
2023-01-09T15:33:43.013Z,62.86
2023-01-09T15:36:31.051Z,63.04
2023-01-09T15:38:59.777Z,62.81
2023-01-09T15:41:49.948Z,62.64
2023-01-09T15:44:27.989Z,63.29
2023-01-09T15:47:01.401Z,63.41
2023-01-09T15:49:29.542Z,64.05
2023-01-09T15:51:58.383Z,64.07
2023-01-09T15:54:32.763Z,64.11
2023-01-09T15:57:25.444Z,64.39
2023-01-09T15:59:57.950Z,64.08
2023-01-09T16:02:45.896Z,64.51
2023-01-09T16:05:18.035Z,64.12
2023-01-09T16:07:48.565Z,64.38
2023-01-09T16:10:35.550Z,64.64
2023-01-09T16:13:03.898Z,64.61
2023-01-09T16:15:35.223Z,64.75
2023-01-09T16:18:37.476Z,64.79
2023-01-09T16:21:22.443Z,64.56
2023-01-09T16:23:57.924Z,64.67
2023-01-09T16:26:31.066Z,64.41
2023-01-09T16:29:36.088Z,64.43
2023-01-09T16:32:06.889Z,64.48
2023-01-09T16:34:37.924Z,64.54
2023-01-09T16:37:06.172Z,64.77
2023-01-09T16:39:36.925Z,64.62
2023-01-09T16:42:34.990Z,64.85
2023-01-09T16:45:09.522Z,65.12
2023-01-09T16:47:36.659Z,64.91
2023-01-09T16:50:04.983Z,65.00
2023-01-09T16:52:32.181Z,64.73
2023-01-09T16:55:00.100Z,64.77
2023-01-09T16:57:29.926Z,64.95
2023-01-09T17:00:00.217Z,65.11
2023-01-09T17:02:28.075Z,64.95
2023-01-09T17:04:59.969Z,65.02
2023-01-09T17:07:31.295Z,65.49
2023-01-09T17:10:01.264Z,65.44
2023-01-09T17:12:33.988Z,65.18
2023-01-09T17:15:15.952Z,65.45
2023-01-09T17:17:53.970Z,65.64
2023-01-09T17:20:27.922Z,66.00
2023-01-09T17:23:00.097Z,65.74
2023-01-09T17:25:46.661Z,66.27
2023-01-09T17:28:44.003Z,66.32
2023-01-09T17:31:14.126Z,66.34
2023-01-09T17:34:16.623Z,66.66
2023-01-09T17:36:46.195Z,66.79
2023-01-09T17:39:31.007Z,66.57
2023-01-09T17:42:01.816Z,66.52
2023-01-09T17:44:37.021Z,66.70
2023-01-09T17:47:07.198Z,66.74
2023-01-09T17:52:34.052Z,66.82
2023-01-09T17:55:09.535Z,67.09
2023-01-09T17:57:41.026Z,66.66
2023-01-09T18:00:21.144Z,66.86
2023-01-09T18:02:54.065Z,67.00
2023-01-09T18:05:22.871Z,66.91
2023-01-09T18:07:54.054Z,67.13
2023-01-09T18:10:34.120Z,67.75
2023-01-09T18:16:10.059Z,67.56
2023-01-09T18:25:13.115Z,68.00
2023-01-09T18:27:49.362Z,68.23
2023-01-09T18:30:32.388Z,68.04
2023-01-09T18:32:59.778Z,68.21
2023-01-09T18:38:33.860Z,67.93
2023-01-09T18:41:04.983Z,68.02
2023-01-09T18:44:04.882Z,68.07
2023-01-09T18:46:42.349Z,68.18
2023-01-09T18:49:17.694Z,68.27
2023-01-09T18:52:00.114Z,68.16
2023-01-09T18:55:00.436Z,69.05
2023-01-09T18:57:59.043Z,68.75
2023-01-09T19:00:33.113Z,68.61
2023-01-09T19:03:23.253Z,69.22
2023-01-09T19:05:51.168Z,69.05
2023-01-09T19:08:53.125Z,69.24
2023-01-09T19:11:22.416Z,68.66
2023-01-09T19:13:58.080Z,68.93
2023-01-09T19:16:25.622Z,69.15
2023-01-09T19:18:54.091Z,69.11
2023-01-09T19:21:26.967Z,69.12
2023-01-09T19:23:57.238Z,68.62
2023-01-09T19:26:31.068Z,68.86
2023-01-09T19:28:59.307Z,68.56
2023-01-09T19:31:29.037Z,68.97
2023-01-09T19:33:57.611Z,68.84
2023-01-09T19:36:25.666Z,69.31
2023-01-09T19:38:57.475Z,68.89
2023-01-09T19:41:27.169Z,68.38
2023-01-09T19:43:54.473Z,68.05
2023-01-09T19:46:26.184Z,68.15
2023-01-09T19:48:53.974Z,68.06
2023-01-09T19:51:22.957Z,68.22
2023-01-09T19:56:31.476Z,67.75
2023-01-09T19:59:02.179Z,67.71
2023-01-09T20:01:36.319Z,67.53
2023-01-09T20:04:10.166Z,67.27
2023-01-09T20:06:42.326Z,67.57
2023-01-09T20:09:12.189Z,68.00
2023-01-09T20:11:41.562Z,67.67
2023-01-09T20:14:14.367Z,67.73
2023-01-09T20:16:44.772Z,67.54
2023-01-09T20:19:14.456Z,68.00
2023-01-09T20:21:44.100Z,67.72
2023-01-09T20:24:16.935Z,67.89
2023-01-09T20:26:47.106Z,67.08
2023-01-09T20:29:14.347Z,67.15
2023-01-09T20:31:48.701Z,66.81
2023-01-09T20:34:16.390Z,67.00
2023-01-09T20:36:44.261Z,67.18
2023-01-09T20:39:12.534Z,67.26
2023-01-09T20:41:44.186Z,67.74
2023-01-09T20:44:16.015Z,67.27
2023-01-09T20:46:48.250Z,67.00
2023-01-09T20:49:20.952Z,67.21
2023-01-09T20:51:52.202Z,67.46
2023-01-09T20:54:21.897Z,66.98
2023-01-09T20:56:50.554Z,67.38
2023-01-09T20:59:20.972Z,67.67
2023-01-09T21:01:48.735Z,67.34
2023-01-09T21:04:15.846Z,67.62
2023-01-09T21:06:43.140Z,68.30
2023-01-09T21:09:10.321Z,67.74
2023-01-09T21:11:37.516Z,68.19
2023-01-09T21:14:04.478Z,68.14
2023-01-09T21:16:31.824Z,68.10
2023-01-09T21:18:58.787Z,68.04
2023-01-09T21:21:27.673Z,68.22
2023-01-09T21:23:59.372Z,67.95
2023-01-09T21:26:30.443Z,67.72
2023-01-09T21:29:01.184Z,68.32
2023-01-09T21:31:35.160Z,67.66
2023-01-09T21:34:07.590Z,68.17
2023-01-09T21:36:36.223Z,68.10
2023-01-09T21:39:07.856Z,67.77
2023-01-09T21:41:54.709Z,68.07
2023-01-09T21:44:40.000Z,68.55
2023-01-09T21:47:07.322Z,68.00
2023-01-09T21:49:36.089Z,68.19
2023-01-09T21:52:04.693Z,68.59
2023-01-09T21:54:33.017Z,68.48
2023-01-09T21:57:00.869Z,67.96
2023-01-09T21:59:29.376Z,68.18
2023-01-09T22:01:56.855Z,67.79
2023-01-09T22:04:30.264Z,67.93
2023-01-09T22:06:57.562Z,67.83
2023-01-09T22:09:24.511Z,68.14
2023-01-09T22:11:52.215Z,67.81
2023-01-09T22:14:20.343Z,67.80
2023-01-09T22:16:48.216Z,67.47
2023-01-09T22:19:19.672Z,67.91
2023-01-09T22:21:47.856Z,68.32
2023-01-09T22:24:18.677Z,68.10
2023-01-09T22:26:46.112Z,68.31
2023-01-09T22:29:13.679Z,68.12
2023-01-09T22:31:40.910Z,68.83
2023-01-09T22:34:08.011Z,68.34
2023-01-09T22:36:35.399Z,68.61
2023-01-09T22:39:02.410Z,68.62
2023-01-09T22:41:30.678Z,67.83
2023-01-09T22:43:58.576Z,68.67
2023-01-09T22:46:26.053Z,68.46
2023-01-09T22:48:53.169Z,68.40
2023-01-09T22:51:22.032Z,68.21
2023-01-09T22:53:50.301Z,68.57
2023-01-09T22:56:20.885Z,68.50
2023-01-09T22:58:53.564Z,68.94
2023-01-09T23:01:22.881Z,68.45
2023-01-09T23:03:50.185Z,68.97
2023-01-09T23:06:21.451Z,68.62
2023-01-09T23:08:50.978Z,68.42
2023-01-09T23:11:45.337Z,68.27
2023-01-09T23:14:12.677Z,68.57
2023-01-09T23:16:40.409Z,68.14
2023-01-09T23:19:14.504Z,68.62
2023-01-09T23:21:43.544Z,68.44
2023-01-09T23:24:11.950Z,68.73
2023-01-09T23:26:39.368Z,68.61
2023-01-09T23:29:07.796Z,68.71
2023-01-09T23:31:36.035Z,68.75
2023-01-09T23:34:04.470Z,68.58
2023-01-09T23:36:31.839Z,68.88
2023-01-09T23:38:59.668Z,69.10
2023-01-09T23:41:45.475Z,68.97
2023-01-09T23:44:12.465Z,69.56
2023-01-09T23:46:39.715Z,69.84
2023-01-09T23:49:06.633Z,69.50
2023-01-09T23:51:33.838Z,69.86
2023-01-09T23:54:00.874Z,69.94
2023-01-09T23:56:30.600Z,69.48
2023-01-09T23:58:58.185Z,69.60
